Time;durP1;ratioP1;P1;durP2;ratioP2;P2;SDS_P1;SDS_P2;PMS_P1;PMS_P2;Temp;Humidity;BMP_temperature;BMP_pressure;BME280_temperature;BME280_humidity;BME280_pressure;Samples;Min_cycle;Max_cycle;Signal;HPM_P1;HPM_P2
2021/03/24 00:01:21;;;;;;;8.20;6.22;;;;;;;2.49;74.99;99935.89;1755731;82;21184;-65
2021/03/24 00:03:54;;;;;;;7.50;5.72;;;;;;;2.49;74.99;99935.89;1755849;82;21141;-64
2021/03/24 00:06:28;;;;;;;10.60;6.00;;;;;;;2.49;74.94;99939.77;1755457;82;21319;-64
2021/03/24 00:09:02;;;;;;;7.58;6.55;;;;;;;2.49;74.92;99941.06;1755009;82;21221;-64
2021/03/24 00:11:36;;;;;;;9.05;6.60;;;;;;;2.47;74.88;99939.87;1755391;82;21181;-65
2021/03/24 00:14:10;;;;;;;9.28;6.37;;;;;;;2.46;75.02;99938.20;1755714;82;21140;-65
2021/03/24 00:16:43;;;;;;;;;;;;;;;2.51;75.06;99937.47;1757901;82;21164;-65
2021/03/24 00:19:16;;;;;;;8.95;6.37;;;;;;;2.54;74.93;99945.49;1755237;82;20188;-64
2021/03/24 00:21:50;;;;;;;8.45;6.00;;;;;;;2.54;74.92;99947.63;1754210;81;21307;-66
2021/03/24 00:24:23;;;;;;;6.83;4.80;;;;;;;2.54;74.96;99939.87;1755794;82;22023;-65
2021/03/24 00:26:57;;;;;;;8.90;6.30;;;;;;;2.55;75.00;99941.55;1755513;82;21795;-65
2021/03/24 00:29:30;;;;;;;8.10;6.22;;;;;;;2.55;74.93;99941.55;1755039;82;21181;-65
2021/03/24 00:32:04;;;;;;;8.98;5.90;;;;;;;2.54;74.87;99945.49;1754959;82;21808;-67
2021/03/24 00:34:37;;;;;;;;;;;;;;;2.53;74.91;99940.78;1758824;82;21778;-66
2021/03/24 00:37:09;;;;;;;9.00;6.00;;;;;;;2.51;74.89;99943.09;1755257;82;20163;-65
2021/03/24 00:39:42;;;;;;;8.33;4.95;;;;;;;2.48;74.96;99940.25;1754947;82;21692;-65
2021/03/24 00:42:15;;;;;;;9.90;6.80;;;;;;;2.49;74.96;99937.19;1755446;82;21192;-68
2021/03/24 00:44:49;;;;;;;8.98;6.78;;;;;;;2.49;74.96;99944.94;1755914;82;21215;-65
2021/03/24 00:47:22;;;;;;;9.73;7.05;;;;;;;2.48;74.85;99949.30;1755407;82;21303;-68
2021/03/24 00:49:55;;;;;;;11.22;7.40;;;;;;;2.45;74.82;99950.77;1755402;82;21787;-66
2021/03/24 00:52:29;;;;;;;8.53;6.80;;;;;;;2.43;74.80;99959.08;1754502;81;21300;-65
2021/03/24 00:55:03;;;;;;;11.03;6.53;;;;;;;2.43;74.86;99966.83;1755989;82;21775;-64
2021/03/24 00:57:36;;;;;;;9.48;6.87;;;;;;;2.42;74.86;99953.98;1755418;82;21260;-66
2021/03/24 01:00:13;;;;;;;8.90;6.47;;;;;;;2.43;74.93;99955.66;1754751;82;21327;-65
2021/03/24 01:02:46;;;;;;;10.43;7.70;;;;;;;2.42;74.97;99950.11;1755253;82;21292;-66
2021/03/24 01:05:22;;;;;;;10.20;7.20;;;;;;;2.40;74.97;99947.63;1756373;82;21794;-65
2021/03/24 01:08:12;;;;;;;11.03;7.37;;;;;;;2.40;75.01;99941.63;1755201;82;21295;-66
2021/03/24 01:10:46;;;;;;;14.58;7.33;;;;;;;2.41;75.00;99941.52;1754412;82;21200;-65
2021/03/24 01:13:19;;;;;;;8.90;6.75;;;;;;;2.40;74.93;99937.30;1755139;82;21734;-64
2021/03/24 01:15:53;;;;;;;;;;;;;;;2.39;75.02;99939.49;1757106;81;21667;-67
2021/03/24 01:18:26;;;;;;;11.10;7.45;;;;;;;2.38;75.01;99936.56;1754980;82;20222;-65
2021/03/24 01:20:59;;;;;;;9.55;7.25;;;;;;;2.36;75.11;99931.12;1755056;82;22315;-64
2021/03/24 01:23:33;;;;;;;11.40;7.75;;;;;;;2.35;75.19;99935.45;1755555;82;21295;-65
2021/03/24 01:26:05;;;;;;;11.73;7.97;;;;;;;2.36;75.21;99933.25;1756085;82;21235;-65
2021/03/24 01:28:39;;;;;;;10.58;7.58;;;;;;;2.36;75.23;99928.53;1754924;82;21263;-65
2021/03/24 01:31:12;;;;;;;8.93;6.50;;;;;;;2.36;75.33;99934.99;1746785;82;21324;-63
2021/03/24 01:33:45;;;;;;;9.83;7.03;;;;;;;2.35;75.33;99937.19;1736849;82;21279;-63
2021/03/24 01:36:19;;;;;;;12.03;7.95;;;;;;;2.37;75.38;99934.05;1737862;82;21773;-66
2021/03/24 01:38:52;;;;;;;11.35;7.80;;;;;;;2.40;75.33;99936.45;1736643;82;21323;-65
2021/03/24 01:41:27;;;;;;;10.35;7.15;;;;;;;2.42;75.24;99930.73;1736137;82;21286;-65
2021/03/24 01:44:00;;;;;;;12.37;7.70;;;;;;;2.41;75.24;99933.77;1736259;82;22208;-63
2021/03/24 01:46:37;;;;;;;7.62;5.50;;;;;;;2.43;75.10;99936.28;1737548;82;21840;-65
2021/03/24 01:49:30;;;;;;;9.43;6.97;;;;;;;2.43;74.90;99922.91;1736655;82;21316;-68
2021/03/24 01:52:07;;;;;;;9.18;6.87;;;;;;;2.41;74.78;99933.77;1737636;82;21273;-66
2021/03/24 01:54:42;;;;;;;10.93;7.60;;;;;;;2.40;74.64;99931.29;1736102;82;22031;-68
2021/03/24 01:57:19;;;;;;;10.48;7.05;;;;;;;2.39;74.68;99931.75;1737134;82;21181;-64
2021/03/24 01:59:56;;;;;;;8.23;6.70;;;;;;;2.42;74.55;99933.31;1735768;82;21185;-65
2021/03/24 02:02:36;;;;;;;8.73;6.85;;;;;;;2.42;74.44;99934.16;1737612;82;21840;-66
2021/03/24 02:05:10;;;;;;;8.95;6.95;;;;;;;2.44;74.41;99930.17;1737624;82;21265;-64
2021/03/24 02:07:56;;;;;;;7.47;6.03;;;;;;;2.46;74.23;99933.52;1737685;82;21339;-64
2021/03/24 02:10:57;;;;;;;9.53;6.78;;;;;;;2.46;74.08;99933.52;1737132;82;21150;-64
2021/03/24 02:13:37;;;;;;;8.35;6.25;;;;;;;2.44;74.08;99937.47;1737219;82;22199;-65
2021/03/24 02:16:23;;;;;;;9.25;7.10;;;;;;;2.43;74.12;99937.57;1737284;82;21327;-66
2021/03/24 02:18:58;;;;;;;9.68;7.58;;;;;;;2.41;74.16;99929.89;1736936;82;21824;-65
2021/03/24 02:21:35;;;;;;;10.88;7.03;;;;;;;2.42;74.19;99933.31;1736823;82;21285;-66
2021/03/24 02:24:42;;;;;;;9.78;7.60;;;;;;;2.42;74.15;99941.06;1737168;82;21800;-68
2021/03/24 02:27:18;;;;;;;8.53;6.47;;;;;;;2.42;74.11;99933.31;1736300;82;21299;-64
2021/03/24 02:29:55;;;;;;;8.03;6.25;;;;;;;2.43;73.99;99940.99;1736090;82;21339;-65
2021/03/24 02:32:30;;;;;;;8.68;5.75;;;;;;;2.45;73.89;99942.18;1736591;82;21831;-65
2021/03/24 02:35:08;;;;;;;8.55;5.78;;;;;;;2.46;73.82;99942.56;1736140;82;21280;-64
2021/03/24 02:37:41;;;;;;;7.75;5.85;;;;;;;2.46;73.63;99935.62;1737208;82;21154;-65
2021/03/24 02:40:17;;;;;;;8.53;6.27;;;;;;;2.47;73.56;99938.58;1736694;82;21320;-64
2021/03/24 02:42:50;;;;;;;8.58;5.87;;;;;;;2.47;73.42;99939.04;1724972;82;22103;-63
2021/03/24 02:45:30;;;;;;;11.05;6.10;;;;;;;2.47;73.41;99941.17;1735841;82;21344;-64
2021/03/24 02:48:07;;;;;;;8.83;6.00;;;;;;;2.49;73.34;99939.77;1736996;82;21181;-63
2021/03/24 02:50:41;;;;;;;7.87;5.60;;;;;;;2.51;73.33;99943.09;1735725;82;21182;-65
2021/03/24 02:53:15;;;;;;;7.37;6.10;;;;;;;2.55;73.27;99946.71;1737429;82;21277;-65
2021/03/24 02:55:48;;;;;;;8.35;5.55;;;;;;;2.58;73.17;99951.67;1736124;82;21216;-65
2021/03/24 02:58:21;;;;;;;6.25;4.87;;;;;;;2.59;73.01;99958.97;1736964;82;21312;-66
2021/03/24 03:00:54;;;;;;;7.25;5.85;;;;;;;2.62;72.86;99963.50;1735923;82;21287;-65
2021/03/24 03:03:40;;;;;;;7.03;5.05;;;;;;;2.64;72.75;99966.82;1737385;82;21146;-68
2021/03/24 03:06:14;;;;;;;6.47;5.05;;;;;;;2.65;72.59;99967.17;1735661;82;21917;-65
2021/03/24 03:08:51;;;;;;;6.28;5.05;;;;;;;2.69;72.39;99971.70;1737188;82;21245;-64
2021/03/24 03:11:38;;;;;;;6.67;5.37;;;;;;;2.68;72.17;99966.99;1736775;82;21134;-66
2021/03/24 03:14:17;;;;;;;7.80;5.55;;;;;;;2.66;72.11;99975.30;1735679;82;21787;-67
2021/03/24 03:17:12;;;;;;;8.45;5.83;;;;;;;2.66;72.01;99979.64;1737105;82;21269;-66
2021/03/24 03:20:11;;;;;;;7.03;4.83;;;;;;;2.62;71.84;99981.59;1736535;82;21193;-64
2021/03/24 03:22:48;;;;;;;6.37;4.62;;;;;;;2.55;71.72;99982.89;1735359;82;21316;-66
2021/03/24 03:25:32;;;;;;;5.85;4.35;;;;;;;2.52;71.75;99989.52;1735680;82;21316;-64
2021/03/24 03:28:14;;;;;;;6.58;4.72;;;;;;;2.51;71.77;99996.05;1734540;81;21217;-64
2021/03/24 03:30:51;;;;;;;7.12;4.58;;;;;;;2.49;71.76;99999.20;1733264;82;22131;-64
2021/03/24 03:33:30;;;;;;;7.42;4.70;;;;;;;2.49;71.68;99999.20;1742415;82;21287;-64
2021/03/24 03:36:03;;;;;;;5.30;3.85;;;;;;;2.46;71.61;100001.98;1751327;82;21590;-64
2021/03/24 03:38:36;;;;;;;4.75;3.83;;;;;;;2.42;71.52;100004.36;1755011;82;21322;-63
2021/03/24 03:41:12;;;;;;;6.47;4.37;;;;;;;2.41;71.58;100013.05;1751877;82;22020;-63
2021/03/24 03:43:47;;;;;;;6.58;4.45;;;;;;;2.39;71.43;100011.83;1754109;82;21300;-66
2021/03/24 03:46:23;;;;;;;5.45;4.50;;;;;;;2.37;71.62;100007.67;1753354;82;21323;-67
2021/03/24 03:48:56;;;;;;;6.25;4.58;;;;;;;2.39;71.66;100012.31;1754371;82;21189;-63
2021/03/24 03:51:46;;;;;;;9.88;5.40;;;;;;;2.39;71.60;100018.77;1752188;82;21298;-63
2021/03/24 03:54:38;;;;;;;5.15;3.70;;;;;;;2.36;71.75;100013.33;1733256;82;21545;-64
2021/03/24 03:57:21;;;;;;;26.17;7.70;;;;;;;2.36;71.75;100015.07;1754721;82;21244;-64
2021/03/24 04:00:26;;;;;;;9.55;5.00;;;;;;;2.33;71.83;100019.95;1753515;82;21251;-64
2021/03/24 04:03:15;;;;;;;6.78;4.03;;;;;;;2.33;71.95;100027.70;1752007;82;21258;-63
2021/03/24 04:05:58;;;;;;;8.25;5.17;;;;;;;2.34;71.99;100024.67;1752009;82;21315;-65
2021/03/24 04:08:35;;;;;;;6.87;4.28;;;;;;;2.34;72.00;100025.47;1753382;82;21646;-65
2021/03/24 04:11:11;;;;;;;8.40;4.50;;;;;;;2.37;72.03;100025.76;1752496;82;22177;-64
2021/03/24 04:13:49;;;;;;;5.75;4.12;;;;;;;2.37;72.08;100028.34;1752646;82;21256;-64
2021/03/24 04:16:23;;;;;;;7.50;4.67;;;;;;;2.39;72.08;100032.50;1752336;81;21299;-66
2021/03/24 04:19:06;;;;;;;11.25;4.62;;;;;;;2.44;72.02;100034.35;1755139;82;21164;-66
2021/03/24 04:21:40;;;;;;;6.50;4.62;;;;;;;2.48;71.88;100041.48;1751290;82;21224;-66
2021/03/24 04:24:32;;;;;;;11.40;4.15;;;;;;;2.50;71.75;100031.88;1753026;82;21331;-69
2021/03/24 04:27:06;;;;;;;5.75;3.95;;;;;;;2.52;71.48;100041.66;1751219;82;22006;-69
2021/03/24 04:29:49;;;;;;;30.52;17.45;;;;;;;2.51;71.45;100027.06;1753250;82;21645;-69
2021/03/24 04:32:23;;;;;;;118.25;58.63;;;;;;;2.51;71.15;100034.36;1753827;81;21219;-68
2021/03/24 04:34:56;;;;;;;28.55;17.85;;;;;;;2.50;71.14;100031.88;1739717;82;22033;-70
2021/03/24 04:37:40;;;;;;;20.03;13.53;;;;;;;2.50;71.16;100031.88;1734902;82;21177;-71
2021/03/24 04:40:46;;;;;;;8.18;6.30;;;;;;;2.49;71.13;100027.16;1735214;82;21644;-69
2021/03/24 04:43:28;;;;;;;8.13;4.83;;;;;;;2.50;71.13;100039.17;1726634;82;21220;-69
2021/03/24 04:46:13;;;;;;;7.60;5.35;;;;;;;2.53;71.08;100047.20;1735113;82;22003;-69
2021/03/24 04:48:52;;;;;;;8.28;6.70;;;;;;;2.51;70.95;100047.73;1733423;82;21316;-69
2021/03/24 04:51:29;;;;;;;7.90;5.58;;;;;;;2.47;71.11;100045.80;1735575;82;21287;-69
2021/03/24 04:54:30;;;;;;;6.87;4.92;;;;;;;2.47;71.21;100045.80;1735567;81;21304;-68
2021/03/24 04:57:07;;;;;;;27.30;17.73;;;;;;;2.49;71.13;100053.00;1736502;82;21182;-69
2021/03/24 04:59:46;;;;;;;23.70;14.18;;;;;;;2.49;71.11;100052.16;1737099;82;21288;-68
2021/03/24 05:02:33;;;;;;;15.25;9.93;;;;;;;2.47;71.18;100051.43;1736269;82;21359;-69
2021/03/24 05:05:30;;;;;;;43.28;22.25;;;;;;;2.48;71.22;100050.52;1736083;82;21328;-69
2021/03/24 05:08:16;;;;;;;109.63;50.03;;;;;;;2.47;71.20;100049.69;1733813;82;21300;-69
2021/03/24 05:10:49;;;;;;;76.50;34.98;;;;;;;2.44;71.35;100058.89;1734950;82;21299;-68
2021/03/24 05:13:32;;;;;;;30.55;16.17;;;;;;;2.46;71.44;100060.92;1732026;82;22033;-70
2021/03/24 05:16:18;;;;;;;36.88;19.30;;;;;;;2.50;71.35;100062.43;1733505;81;21241;-69
2021/03/24 05:18:54;;;;;;;25.65;14.18;;;;;;;2.52;71.33;100064.91;1701686;83;21314;-69
2021/03/24 05:22:07;;;;;;;42.48;23.05;;;;;;;2.51;71.38;100072.28;1735048;81;21185;-71
2021/03/24 05:24:41;;;;;;;21.12;12.88;;;;;;;2.48;71.32;100073.32;1755520;81;21213;-67
2021/03/24 05:27:22;;;;;;;31.02;17.92;;;;;;;2.46;71.37;100069.97;1761542;81;21351;-70
2021/03/24 05:29:59;;;;;;;9.13;6.45;;;;;;;2.50;71.54;100076.64;1763396;81;21815;-69
2021/03/24 05:32:43;;;;;;;10.53;7.65;;;;;;;2.57;71.54;100081.82;1761559;81;21330;-68
2021/03/24 05:35:42;;;;;;;7.42;6.05;;;;;;;2.61;71.35;100077.28;1708858;82;21322;-69
2021/03/24 05:38:20;;;;;;;8.25;6.05;;;;;;;2.61;71.32;100083.30;1728471;82;21318;-69
2021/03/24 05:41:34;;;;;;;10.32;6.97;;;;;;;2.63;71.25;100084.48;1751264;82;21576;-68
2021/03/24 05:44:52;;;;;;;8.78;6.17;;;;;;;2.64;70.99;100087.45;1751145;82;21311;-68
2021/03/24 05:48:13;;;;;;;9.13;6.62;;;;;;;2.61;70.95;100082.00;1751718;80;21322;-67
2021/03/24 05:51:22;;;;;;;;;;;;;;;2.61;71.10;100082.00;1716312;80;21180;-65
2021/03/24 05:58:24;;;;;;;11.15;6.15;;;;;;;2.68;71.00;100092.80;1751026;82;21522;-68
2021/03/24 06:01:09;;;;;;;26.65;16.52;;;;;;;2.66;70.98;100083.86;1751566;82;22108;-65
2021/03/24 06:04:12;;;;;;;10.75;8.23;;;;;;;2.70;70.93;100088.37;1716934;83;21207;-62
2021/03/24 06:07:20;;;;;;;8.95;6.78;;;;;;;2.72;70.83;100093.02;1742361;81;22077;-64
2021/03/24 06:10:33;;;;;;;12.82;8.13;;;;;;;2.76;70.80;100091.06;1741832;82;22044;-64
2021/03/24 06:13:40;;;;;;;15.93;10.90;;;;;;;2.82;70.75;100095.89;1742651;82;22064;-63
2021/03/24 06:16:31;;;;;;;9.68;6.65;;;;;;;2.82;70.70;100096.69;1741845;82;21990;-66
2021/03/24 06:19:32;;;;;;;13.20;6.03;;;;;;;2.83;70.61;100104.83;1742294;82;21200;-64
2021/03/24 06:27:00;;;;;;;10.50;6.55;;;;;;;2.80;70.30;100107.59;1742089;82;21287;-63
2021/03/24 06:30:21;;;;;;;10.10;7.08;;;;;;;2.77;70.54;100108.25;1727690;82;21883;-65
2021/03/24 06:33:51;;;;;;;8.60;6.58;;;;;;;2.80;70.76;100103.71;1724269;82;21193;-63
2021/03/24 06:36:38;;;;;;;10.58;6.20;;;;;;;2.87;70.55;100115.35;1743208;82;21463;-61
2021/03/24 06:40:10;;;;;;;10.60;7.40;;;;;;;2.94;70.52;100115.36;1740803;82;21370;-61
2021/03/24 06:43:18;;;;;;;10.75;7.37;;;;;;;2.99;70.44;100114.63;1743427;82;21618;-64
2021/03/24 06:46:22;;;;;;;12.33;7.47;;;;;;;3.02;70.39;100129.13;1741956;82;22065;-66
2021/03/24 06:49:02;;;;;;;9.70;6.80;;;;;;;3.03;70.02;100116.13;1742602;82;21247;-65
2021/03/24 06:52:34;;;;;;;10.32;7.17;;;;;;;3.00;69.91;100129.23;1720035;82;21311;-61
2021/03/24 06:55:32;;;;;;;10.58;7.22;;;;;;;2.94;69.97;100126.98;1742765;82;22029;-60
2021/03/24 06:58:35;;;;;;;11.45;7.55;;;;;;;2.95;70.13;100126.53;1741360;82;21287;-67
2021/03/24 07:01:51;;;;;;;10.05;7.20;;;;;;;2.94;70.18;100134.75;1743419;82;22051;-65
2021/03/24 07:04:35;;;;;;;;;;;;;;;2.97;70.04;100142.33;1745026;82;21382;-61
2021/03/24 07:07:30;;;;;;;11.05;7.35;;;;;;;2.97;70.03;100142.78;1743554;82;20202;-66
2021/03/24 07:10:40;;;;;;;9.35;7.03;;;;;;;3.00;70.15;100149.92;1743229;82;21221;-61
2021/03/24 07:13:23;;;;;;;10.18;7.20;;;;;;;3.02;69.96;100144.64;1743211;82;22112;-63
2021/03/24 07:16:15;;;;;;;9.30;6.92;;;;;;;3.04;69.84;100164.31;1742575;82;21303;-62
2021/03/24 07:19:10;;;;;;;10.43;6.53;;;;;;;3.01;69.61;100157.22;1743100;82;21323;-61
2021/03/24 07:22:12;;;;;;;9.27;6.87;;;;;;;2.99;69.68;100159.88;1743618;82;21228;-59
2021/03/24 07:25:02;;;;;;;9.90;7.28;;;;;;;2.98;69.77;100162.56;1742472;82;22343;-61
2021/03/24 07:27:59;;;;;;;8.53;6.45;;;;;;;2.99;69.96;100165.50;1743471;82;21304;-61
2021/03/24 07:31:07;;;;;;;9.83;7.15;;;;;;;3.01;69.82;100180.50;1743195;82;21227;-61
2021/03/24 07:34:19;;;;;;;10.70;7.35;;;;;;;3.02;69.68;100179.55;1743466;82;22039;-64
2021/03/24 07:37:32;;;;;;;8.53;6.10;;;;;;;3.00;69.67;100176.23;1741935;82;21326;-63
2021/03/24 07:40:47;;;;;;;10.78;7.95;;;;;;;2.97;69.49;100177.70;1736565;82;21335;-62
2021/03/24 07:43:59;;;;;;;12.60;7.47;;;;;;;2.97;69.76;100189.33;1736655;82;21336;-62
2021/03/24 07:46:58;;;;;;;8.50;6.40;;;;;;;2.97;69.81;100188.04;1736485;82;21315;-62
2021/03/24 07:50:14;;;;;;;10.93;7.80;;;;;;;3.00;69.80;100183.53;1736960;82;21637;-60
2021/03/24 07:53:13;;;;;;;11.28;7.00;;;;;;;3.01;69.60;100180.50;1737559;82;21335;-61
2021/03/24 07:56:28;;;;;;;12.18;7.60;;;;;;;2.98;69.48;100193.59;1736310;82;21331;-63
2021/03/24 07:59:18;;;;;;;30.08;16.07;;;;;;;2.95;69.71;100184.27;1736393;82;21650;-64
2021/03/24 08:02:10;;;;;;;35.17;18.95;;;;;;;2.96;69.79;100195.45;1737580;82;21563;-63
2021/03/24 08:05:10;;;;;;;14.50;9.28;;;;;;;2.98;69.82;100187.97;1737101;82;21358;-63
2021/03/24 08:08:35;;;;;;;48.95;26.05;;;;;;;3.00;69.76;100196.92;1737434;82;21387;-59
2021/03/24 08:11:19;;;;;;;15.50;8.48;;;;;;;2.97;69.75;100212.16;1736343;82;21319;-64
2021/03/24 08:14:16;;;;;;;50.58;23.95;;;;;;;2.94;69.92;100211.52;1737689;82;21173;-59
2021/03/24 08:17:06;;;;;;;34.80;18.67;;;;;;;2.94;70.07;100214.09;1736103;82;21236;-62
2021/03/24 08:20:15;;;;;;;24.75;15.08;;;;;;;2.94;70.15;100214.91;1737106;82;21283;-60
2021/03/24 08:23:06;;;;;;;88.47;44.93;;;;;;;2.97;70.20;100219.07;1737316;82;21994;-60
2021/03/24 08:26:08;;;;;;;52.20;27.80;;;;;;;2.95;70.34;100206.70;1736665;82;21205;-60
2021/03/24 08:29:11;;;;;;;20.92;12.47;;;;;;;2.95;70.59;100214.45;1737493;82;21369;-60
2021/03/24 08:32:14;;;;;;;12.35;7.28;;;;;;;2.98;70.81;100214.28;1737543;82;22128;-63
2021/03/24 08:35:07;;;;;;;10.18;7.20;;;;;;;3.02;70.77;100224.36;1737206;82;21205;-61
2021/03/24 08:38:25;;;;;;;12.90;6.93;;;;;;;3.01;70.89;100213.63;1738236;81;21450;-60
2021/03/24 08:41:19;;;;;;;13.10;8.80;;;;;;;3.00;71.08;100215.02;1742251;82;21745;-62
2021/03/24 08:44:26;;;;;;;12.40;7.08;;;;;;;2.99;71.15;100212.89;1743213;82;22009;-66
2021/03/24 08:47:24;;;;;;;9.20;6.30;;;;;;;3.01;71.12;100206.36;1742624;81;21213;-60
2021/03/24 08:50:05;;;;;;;11.12;7.47;;;;;;;3.03;70.95;100207.09;1741966;81;21224;-62
2021/03/24 08:53:09;;;;;;;9.90;7.22;;;;;;;3.01;70.86;100216.21;1743332;82;21316;-64
2021/03/24 08:56:01;;;;;;;;;;;;;;;2.99;70.80;100215.93;1745080;82;21322;-63
2021/03/24 08:58:37;;;;;;;10.23;7.03;;;;;;;2.96;70.90;100213.06;1743033;81;20198;-64
2021/03/24 09:01:21;;;;;;;10.28;7.72;;;;;;;2.95;70.96;100220.91;1723773;82;21223;-64
2021/03/24 09:04:25;;;;;;;10.30;6.92;;;;;;;2.92;71.21;100206.41;1743450;82;22101;-65
2021/03/24 09:07:19;;;;;;;11.05;6.65;;;;;;;2.96;71.28;100214.84;1742428;82;21338;-66
2021/03/24 09:10:11;;;;;;;11.75;7.08;;;;;;;3.02;71.19;100218.34;1741846;81;21427;-68
2021/03/24 09:13:22;;;;;;;9.30;6.70;;;;;;;3.00;71.03;100210.69;1743276;82;21295;-62
2021/03/24 09:16:09;;;;;;;14.03;6.72;;;;;;;2.95;71.14;100214.45;1742835;82;21306;-65
2021/03/24 09:18:59;;;;;;;11.68;6.37;;;;;;;2.97;71.45;100216.48;1742339;81;21248;-66
2021/03/24 11:35:23;;;;;;;6.62;3.95;;;;;;;4.23;73.00;100148.73;1764784;81;21327;-68
2021/03/24 11:38:24;;;;;;;7.87;4.60;;;;;;;4.22;73.05;100144.46;1764787;81;21573;-67
2021/03/24 11:41:04;;;;;;;7.08;4.35;;;;;;;4.22;72.91;100146.59;1765035;81;22090;-70
2021/03/24 11:43:41;;;;;;;5.62;4.40;;;;;;;4.22;72.87;100154.83;1749638;81;22345;-67
2021/03/24 11:46:25;;;;;;;6.17;3.95;;;;;;;4.22;72.94;100155.66;1764882;80;21434;-64
2021/03/24 11:49:32;;;;;;;6.10;4.53;;;;;;;4.28;72.94;100163.48;1764589;81;21188;-64
2021/03/24 11:52:25;;;;;;;7.95;5.78;;;;;;;4.33;72.78;100158.38;1765316;81;21634;-66
2021/03/24 11:55:28;;;;;;;5.10;3.75;;;;;;;4.28;72.72;100151.83;1764067;81;21343;-61
2021/03/24 11:58:31;;;;;;;5.90;4.33;;;;;;;4.23;72.47;100162.98;1760402;81;21197;-65
2021/03/24 12:01:20;;;;;;;4.67;3.92;;;;;;;4.12;72.76;100169.29;1757278;81;21586;-61
2021/03/24 12:04:45;;;;;;;5.28;4.15;;;;;;;4.09;72.98;100167.72;1756720;81;21476;-60
2021/03/24 12:07:27;;;;;;;;;;;;;;;4.08;72.98;100173.36;1759840;81;21357;-60
2021/03/24 12:10:06;;;;;;;5.67;3.98;;;;;;;4.09;73.08;100171.16;1756250;81;20307;-60
2021/03/24 12:12:40;;;;;;;5.40;4.45;;;;;;;4.09;73.35;100179.37;1719637;81;21315;-59
2021/03/24 12:15:28;;;;;;;6.62;4.33;;;;;;;4.14;73.43;100182.97;1756365;81;21210;-60
2021/03/24 12:18:18;;;;;;;5.08;3.72;;;;;;;4.13;73.21;100189.09;1756082;80;21852;-61
2021/03/24 12:21:03;;;;;;;20.30;11.50;;;;;;;4.07;73.40;100193.73;1755251;81;21472;-60
2021/03/24 12:23:38;;;;;;;63.87;28.47;;;;;;;3.99;73.26;100189.95;1756802;81;21177;-62
2021/03/24 12:26:26;;;;;;;102.55;41.25;;;;;;;3.92;73.48;100195.14;1756948;81;21376;-61
2021/03/24 12:29:26;;;;;;;72.95;30.55;;;;;;;3.89;73.72;100196.16;1754207;81;21575;-62
2021/03/24 12:32:02;;;;;;;32.17;15.23;;;;;;;3.83;73.87;100194.42;1757010;81;21182;-65
2021/03/24 12:34:44;;;;;;;81.60;35.28;;;;;;;3.77;74.04;100211.65;1756363;81;21590;-63
2021/03/24 12:37:31;;;;;;;68.50;32.33;;;;;;;3.63;74.20;100208.59;1756647;81;21308;-65
2021/03/24 12:40:18;;;;;;;89.90;41.58;;;;;;;3.60;74.55;100207.50;1756039;81;21323;-64
2021/03/24 12:42:53;;;;;;;91.30;45.43;;;;;;;3.61;74.76;100221.25;1757102;81;21299;-63
2021/03/24 12:45:33;;;;;;;141.57;62.83;;;;;;;3.61;74.84;100222.09;1756129;81;21240;-62
2021/03/24 12:48:22;;;;;;;103.85;53.30;;;;;;;3.61;74.89;100222.55;1756529;81;21359;-60
2021/03/24 12:51:17;;;;;;;39.75;21.27;;;;;;;3.59;74.90;100221.36;1755678;81;21995;-61
2021/03/24 12:53:59;;;;;;;130.80;55.40;;;;;;;3.57;74.99;100213.31;1756841;81;21177;-59
2021/03/24 12:57:17;;;;;;;46.10;23.42;;;;;;;3.56;74.95;100218.14;1757008;81;21336;-61
2021/03/24 13:00:25;;;;;;;50.90;27.67;;;;;;;3.52;75.15;100216.18;1755938;81;21209;-63
2021/03/24 13:03:19;;;;;;;107.43;56.73;;;;;;;3.53;75.31;100218.31;1756153;80;21185;-61
2021/03/24 13:06:18;;;;;;;35.85;20.95;;;;;;;3.54;75.55;100213.48;1756396;80;21324;-62
2021/03/24 13:09:19;;;;;;;24.67;15.13;;;;;;;3.60;75.54;100211.84;1755408;81;21217;-61
2021/03/24 13:12:31;;;;;;;17.45;12.73;;;;;;;3.60;75.46;100207.50;1741700;81;21408;-61
2021/03/24 13:15:27;;;;;;;11.12;7.92;;;;;;;3.57;75.49;100210.72;1756801;81;21323;-61
2021/03/24 13:18:23;;;;;;;8.13;6.22;;;;;;;3.56;75.49;100212.96;1756832;81;21303;-59
2021/03/24 13:21:47;;;;;;;11.65;8.08;;;;;;;3.53;75.55;100220.91;1756262;81;21275;-60
2021/03/24 13:24:44;;;;;;;9.50;6.40;;;;;;;3.49;75.69;100217.66;1756856;81;21319;-59
2021/03/24 13:27:35;;;;;;;8.23;6.58;;;;;;;3.51;75.82;100225.34;1755536;81;21197;-58
2021/03/24 13:30:33;;;;;;;7.33;5.65;;;;;;;3.50;75.74;100228.84;1757011;81;21519;-61
2021/03/24 13:33:20;;;;;;;8.58;6.30;;;;;;;3.47;75.83;100225.14;1730723;81;21224;-62
2021/03/24 13:36:01;;;;;;;8.38;6.22;;;;;;;3.45;76.00;100226.98;1730467;83;22160;-62
2021/03/24 13:38:49;;;;;;;7.92;5.95;;;;;;;3.44;76.03;100221.46;1697929;84;21730;-64
2021/03/24 13:41:22;;;;;;;9.28;6.55;;;;;;;3.46;76.24;100224.33;1697231;84;21347;-61
2021/03/24 13:43:58;;;;;;;;;;;;;;;3.49;76.18;100224.61;1700596;84;21323;-63
2021/03/24 13:46:36;;;;;;;6.97;5.45;;;;;;;3.52;76.14;100228.28;1697274;84;20329;-61
2021/03/24 13:49:23;;;;;;;8.03;6.10;;;;;;;3.49;76.21;100222.83;1697326;84;21355;-60
2021/03/24 13:52:07;;;;;;;7.87;5.72;;;;;;;3.52;76.20;100223.95;1697191;84;21499;-62
2021/03/24 13:55:04;;;;;;;7.95;5.50;;;;;;;3.56;76.24;100222.02;1698055;84;21201;-60
2021/03/24 13:57:56;;;;;;;6.62;4.95;;;;;;;3.60;76.12;100232.09;1690084;84;21385;-59
2021/03/24 14:00:49;;;;;;;7.20;4.62;;;;;;;3.56;75.92;100233.18;1694952;83;21267;-59
2021/03/24 14:03:43;;;;;;;7.87;4.95;;;;;;;3.53;76.08;100228.21;1694541;84;21247;-60
2021/03/24 14:06:53;;;;;;;7.03;5.17;;;;;;;3.58;76.11;100232.66;1694211;84;22040;-58
2021/03/24 14:09:40;;;;;;;6.03;4.72;;;;;;;3.58;76.02;100233.95;1663890;84;21199;-56
2021/03/24 14:12:44;;;;;;;6.83;5.30;;;;;;;3.57;76.14;100235.31;1693152;83;22016;-59
2021/03/24 14:15:29;;;;;;;8.03;5.67;;;;;;;3.53;76.04;100239.86;1694454;84;21224;-59
2021/03/24 14:18:11;;;;;;;;;;;;;;;3.49;76.02;100239.66;1696899;84;21442;-61
2021/03/24 14:21:18;;;;;;;13.05;8.23;;;;;;;3.46;76.12;100239.02;1692882;84;20694;-61
2021/03/24 14:24:13;;;;;;;14.58;8.43;;;;;;;3.41;76.27;100242.69;1727105;83;21203;-60
2021/03/24 14:26:58;;;;;;;16.45;9.70;;;;;;;3.43;76.28;100249.09;1693556;83;21210;-59
2021/03/24 14:29:36;;;;;;;19.10;12.03;;;;;;;3.46;76.37;100255.84;1712678;83;21733;-58
2021/03/24 14:32:15;;;;;;;9.28;7.15;;;;;;;3.46;76.35;100255.84;1726390;83;21202;-59
2021/03/24 14:35:08;;;;;;;9.35;6.20;;;;;;;3.47;76.30;100252.31;1725976;82;21198;-59
2021/03/24 14:42:07;;;;;;;7.90;5.78;;;;;;;3.39;76.13;100258.77;1727226;82;21512;-60
2021/03/24 14:45:10;;;;;;;9.33;6.08;;;;;;;3.25;76.45;100257.46;1735030;82;21575;-64
2021/03/24 14:48:06;;;;;;;9.23;6.08;;;;;;;3.24;76.52;100262.28;1726662;82;21676;-62
2021/03/24 14:50:54;;;;;;;8.25;6.37;;;;;;;3.24;76.62;100262.28;1733900;82;21225;-61
2021/03/24 14:53:42;;;;;;;9.63;6.87;;;;;;;3.26;76.58;100267.36;1726308;82;22210;-64
2021/03/24 14:56:36;;;;;;;12.35;8.75;;;;;;;3.28;76.78;100268.94;1733620;82;21198;-64
2021/03/24 14:59:33;;;;;;;9.98;7.35;;;;;;;3.33;76.87;100269.95;1727686;82;22166;-64
2021/03/24 15:06:32;;;;;;;9.10;6.20;;;;;;;3.28;76.75;100279.28;1727816;82;21863;-66
2021/03/24 15:13:29;;;;;;;8.43;5.85;;;;;;;3.28;76.76;100280.58;1734022;82;21185;-65
2021/03/24 15:16:23;;;;;;;9.73;6.35;;;;;;;3.33;76.83;100282.44;1726063;82;21289;-66
2021/03/24 15:19:28;;;;;;;8.88;6.25;;;;;;;3.38;76.88;100281.71;1735059;82;21199;-67
2021/03/24 15:22:20;;;;;;;10.28;7.30;;;;;;;3.41;76.75;100286.69;1727332;82;21333;-64
2021/03/24 15:25:21;;;;;;;11.95;7.53;;;;;;;3.44;76.68;100293.92;1735147;82;22034;-66
2021/03/24 15:28:11;;;;;;;10.90;7.72;;;;;;;3.44;76.58;100293.44;1727103;82;22022;-66
2021/03/24 15:31:09;;;;;;;17.73;11.38;;;;;;;3.43;76.47;100291.79;1733897;82;21199;-63
2021/03/24 15:34:06;;;;;;;15.93;9.58;;;;;;;3.41;76.47;100297.03;1726531;82;21333;-63
2021/03/24 15:36:50;;;;;;;22.77;13.28;;;;;;;3.39;76.37;100301.47;1712112;81;21309;-61
2021/03/24 15:39:34;;;;;;;16.97;10.93;;;;;;;3.34;76.45;100303.98;1727709;82;21188;-63
2021/03/24 15:42:27;;;;;;;20.10;12.45;;;;;;;3.28;76.52;100302.57;1709558;83;21254;-61
2021/03/24 15:45:05;;;;;;;18.50;12.30;;;;;;;3.28;76.50;100304.31;1699029;83;21318;-60